createdAt,value
2023-05-14T00:00:04.646Z,13.02
2023-05-14T00:02:31.410Z,13.32
2023-05-14T00:04:58.136Z,13.88
2023-05-14T00:07:30.845Z,14.27
2023-05-14T00:09:58.478Z,13.20
2023-05-14T00:12:26.477Z,14.02
2023-05-14T00:14:53.811Z,12.77
2023-05-14T00:17:20.597Z,13.02
2023-05-14T00:19:47.435Z,14.23
2023-05-14T00:22:14.257Z,14.07
2023-05-14T00:24:40.991Z,14.30
2023-05-14T00:27:07.777Z,14.55
2023-05-14T00:29:34.558Z,15.00
2023-05-14T00:32:01.269Z,14.25
2023-05-14T00:34:27.951Z,12.90
2023-05-14T00:36:54.699Z,14.05
2023-05-14T00:39:21.434Z,14.77
2023-05-14T00:41:48.143Z,13.23
2023-05-14T00:44:14.887Z,13.32
2023-05-14T00:46:43.852Z,15.40
2023-05-14T00:49:11.008Z,15.55
2023-05-14T00:51:38.148Z,18.42
2023-05-14T00:54:05.106Z,14.68
2023-05-14T00:56:31.770Z,14.93
2023-05-14T00:58:58.758Z,13.65
2023-05-14T01:01:28.682Z,15.38
2023-05-14T01:03:57.969Z,14.02
2023-05-14T01:06:35.875Z,15.57
2023-05-14T01:09:19.473Z,15.60
2023-05-14T01:12:00.077Z,15.32
2023-05-14T01:14:29.858Z,13.70
2023-05-14T01:16:58.377Z,13.70
2023-05-14T01:19:44.126Z,12.02
2023-05-14T01:22:11.837Z,13.88
2023-05-14T01:24:38.606Z,13.80
2023-05-14T01:27:17.410Z,15.77
2023-05-14T01:29:50.089Z,15.27
2023-05-14T01:32:16.873Z,14.13
2023-05-14T01:34:43.570Z,14.43
2023-05-14T01:37:10.280Z,14.15
2023-05-14T01:39:38.086Z,14.70
2023-05-14T01:42:05.657Z,14.60
2023-05-14T01:44:33.887Z,15.38
2023-05-14T01:47:00.665Z,15.38
2023-05-14T01:49:27.397Z,14.75
2023-05-14T01:51:54.456Z,13.77
2023-05-14T01:54:21.180Z,15.10
2023-05-14T01:56:47.818Z,16.00
2023-05-14T01:59:14.590Z,14.93
2023-05-14T02:01:41.455Z,15.32
2023-05-14T02:04:08.284Z,15.40
2023-05-14T02:06:34.987Z,15.27
2023-05-14T02:09:02.520Z,14.43
2023-05-14T02:11:29.174Z,15.30
2023-05-14T02:13:55.914Z,15.52
2023-05-14T02:16:22.733Z,13.77
2023-05-14T02:18:49.543Z,23.42
2023-05-14T02:21:16.820Z,14.13
2023-05-14T02:23:44.350Z,14.05
2023-05-14T02:26:11.408Z,14.07
2023-05-14T02:28:38.282Z,13.20
2023-05-14T02:31:05.061Z,13.23
2023-05-14T02:33:31.812Z,14.52
2023-05-14T02:35:58.549Z,12.15
2023-05-14T02:38:26.253Z,13.23
2023-05-14T02:40:53.119Z,12.90
2023-05-14T02:43:19.772Z,13.65
2023-05-14T02:45:46.466Z,13.75
2023-05-14T02:48:13.254Z,11.88
2023-05-14T02:50:40.094Z,12.02
2023-05-14T02:53:06.806Z,11.02
2023-05-14T02:55:33.940Z,15.13
2023-05-14T02:58:00.573Z,11.68
2023-05-14T03:00:27.257Z,11.55
2023-05-14T03:02:54.231Z,11.82
2023-05-14T03:05:21.462Z,13.95
2023-05-14T03:07:48.212Z,11.80
2023-05-14T03:10:15.023Z,9.77
2023-05-14T03:12:41.890Z,11.60
2023-05-14T03:15:09.611Z,11.77
2023-05-14T03:17:36.445Z,10.73
2023-05-14T03:20:03.641Z,12.90
2023-05-14T03:22:30.336Z,12.02
2023-05-14T03:24:57.046Z,11.65
2023-05-14T03:27:23.812Z,11.40
2023-05-14T03:29:50.470Z,12.18
2023-05-14T03:32:18.225Z,11.35
2023-05-14T03:34:44.965Z,12.88
2023-05-14T03:37:11.601Z,10.93
2023-05-14T03:39:38.232Z,10.13
2023-05-14T03:42:05.347Z,13.07
2023-05-14T03:44:32.032Z,11.43
2023-05-14T03:46:58.818Z,11.70
2023-05-14T03:49:25.602Z,13.43
2023-05-14T03:51:52.339Z,10.63
2023-05-14T03:54:19.008Z,12.38
2023-05-14T03:56:46.158Z,9.70
2023-05-14T03:59:12.906Z,10.45
2023-05-14T04:01:39.561Z,13.25
2023-05-14T04:04:06.654Z,11.25
2023-05-14T04:06:34.010Z,10.77
2023-05-14T04:09:00.759Z,10.35
2023-05-14T04:11:27.451Z,12.18
2023-05-14T04:13:54.246Z,12.98
2023-05-14T04:16:20.981Z,11.85
2023-05-14T04:18:47.773Z,12.38
2023-05-14T04:21:14.545Z,13.88
2023-05-14T04:23:41.272Z,15.18
2023-05-14T04:26:07.973Z,10.10
2023-05-14T04:28:34.676Z,10.75
2023-05-14T04:31:01.348Z,9.68
2023-05-14T04:33:28.212Z,8.98
2023-05-14T04:35:54.948Z,10.05
2023-05-14T04:38:21.856Z,11.13
2023-05-14T04:40:48.665Z,8.00
2023-05-14T04:43:16.474Z,9.57
2023-05-14T04:45:43.236Z,9.55
2023-05-14T04:48:09.976Z,10.45
2023-05-14T04:50:36.723Z,11.15
2023-05-14T04:53:03.542Z,9.77
2023-05-14T04:55:30.433Z,9.90
2023-05-14T04:57:57.126Z,9.30
2023-05-14T05:00:24.203Z,9.30
2023-05-14T05:02:51.305Z,8.35
2023-05-14T05:05:18.186Z,9.10
2023-05-14T05:07:44.883Z,10.05
2023-05-14T05:10:11.706Z,10.00
2023-05-14T05:12:38.616Z,8.73
2023-05-14T05:15:06.003Z,10.05
2023-05-14T05:17:33.040Z,9.45
2023-05-14T05:19:59.960Z,11.32
2023-05-14T05:22:26.918Z,10.10
2023-05-14T05:24:53.647Z,10.15
2023-05-14T05:27:22.138Z,9.20
2023-05-14T05:29:55.348Z,9.75
2023-05-14T05:32:23.387Z,11.27
2023-05-14T05:34:52.024Z,10.15
2023-05-14T05:37:18.785Z,10.63
2023-05-14T05:39:45.744Z,9.18
2023-05-14T05:42:12.463Z,8.98
2023-05-14T05:44:39.202Z,12.13
2023-05-14T05:47:06.243Z,11.63
2023-05-14T05:49:33.095Z,8.43
2023-05-14T05:51:59.811Z,9.05
2023-05-14T05:54:32.254Z,9.95
2023-05-14T05:56:59.947Z,13.57
2023-05-14T05:59:26.840Z,10.82
2023-05-14T06:01:53.657Z,9.10
2023-05-14T06:04:20.517Z,9.48
2023-05-14T06:06:47.464Z,10.32
2023-05-14T06:09:14.194Z,9.02
2023-05-14T06:11:40.862Z,8.13
2023-05-14T06:14:07.782Z,9.88
2023-05-14T06:16:34.555Z,9.98
2023-05-14T06:19:02.193Z,8.93
2023-05-14T06:21:29.017Z,9.10
2023-05-14T06:23:55.758Z,8.10
2023-05-14T06:26:22.517Z,8.18
2023-05-14T06:28:49.266Z,8.02
2023-05-14T06:31:15.961Z,10.35
2023-05-14T06:33:42.692Z,7.45
2023-05-14T06:36:09.637Z,8.35
2023-05-14T06:38:36.575Z,9.27
2023-05-14T06:41:03.615Z,8.93
2023-05-14T06:43:30.290Z,8.02
2023-05-14T06:45:57.052Z,8.48
2023-05-14T06:48:24.037Z,8.48
2023-05-14T06:50:51.057Z,8.13
2023-05-14T06:53:17.833Z,7.50
2023-05-14T06:55:45.094Z,8.57
2023-05-14T06:58:11.829Z,7.68
2023-05-14T07:00:38.593Z,9.57
2023-05-14T07:03:05.452Z,8.88
2023-05-14T07:05:32.443Z,7.88
2023-05-14T07:07:59.077Z,7.93
2023-05-14T07:10:25.954Z,7.20
2023-05-14T07:12:53.029Z,9.13
2023-05-14T07:15:19.828Z,7.43
2023-05-14T07:17:46.725Z,8.65
2023-05-14T07:20:13.673Z,10.05
2023-05-14T07:22:40.400Z,8.05
2023-05-14T07:25:07.885Z,7.65
2023-05-14T07:27:34.665Z,7.50
2023-05-14T07:30:01.559Z,9.50
2023-05-14T07:32:28.354Z,7.15
2023-05-14T07:34:55.027Z,7.30
2023-05-14T07:37:24.133Z,7.60
2023-05-14T07:39:50.979Z,10.43
2023-05-14T07:42:31.852Z,7.78
2023-05-14T07:45:02.741Z,7.88
2023-05-14T07:47:29.794Z,9.60
2023-05-14T07:49:57.429Z,7.40
2023-05-14T07:52:24.519Z,7.70
2023-05-14T07:54:51.838Z,7.15
2023-05-14T07:57:19.500Z,7.68
2023-05-14T07:59:46.837Z,7.65
2023-05-14T08:02:17.062Z,8.45
2023-05-14T08:04:44.125Z,7.63
2023-05-14T08:07:11.146Z,7.28
2023-05-14T08:09:37.937Z,7.18
2023-05-14T08:12:05.130Z,8.32
2023-05-14T08:14:31.859Z,7.70
2023-05-14T08:16:58.636Z,8.43
2023-05-14T08:19:27.430Z,7.75
2023-05-14T08:21:54.253Z,8.88
2023-05-14T08:24:20.931Z,7.95
2023-05-14T08:26:47.821Z,7.72
2023-05-14T08:29:16.531Z,7.57
2023-05-14T08:31:43.656Z,8.27
2023-05-14T08:34:10.397Z,8.48
2023-05-14T08:36:37.947Z,9.68
2023-05-14T08:39:04.676Z,8.77
2023-05-14T08:41:31.345Z,7.10
2023-05-14T08:44:10.553Z,10.15
2023-05-14T08:46:38.485Z,13.05
2023-05-14T08:49:22.677Z,9.38
2023-05-14T08:51:49.569Z,8.50
2023-05-14T08:54:19.629Z,7.00
2023-05-14T08:56:51.176Z,7.32
2023-05-14T08:59:18.496Z,9.18
2023-05-14T09:01:48.128Z,8.65
2023-05-14T09:04:16.467Z,7.30
2023-05-14T09:06:43.301Z,8.70
2023-05-14T09:09:10.332Z,7.85
2023-05-14T09:11:46.046Z,9.10
2023-05-14T09:14:12.852Z,10.48
2023-05-14T09:16:40.423Z,8.27
2023-05-14T09:19:07.417Z,7.85
2023-05-14T09:21:34.690Z,8.80
2023-05-14T09:24:01.532Z,7.57
2023-05-14T09:26:28.384Z,8.48
2023-05-14T09:29:02.052Z,8.20
2023-05-14T09:31:33.679Z,8.82
2023-05-14T09:34:00.729Z,8.65
2023-05-14T09:36:27.471Z,10.25
2023-05-14T09:38:57.022Z,8.40
2023-05-14T09:41:24.491Z,9.15
2023-05-14T09:43:51.638Z,7.75
2023-05-14T09:46:18.272Z,8.30
2023-05-14T09:48:46.109Z,7.80
2023-05-14T09:51:13.685Z,7.93
2023-05-14T09:53:41.420Z,7.05
2023-05-14T09:56:08.163Z,7.13
2023-05-14T09:58:34.872Z,7.25
2023-05-14T10:01:02.715Z,7.30
2023-05-14T10:03:30.432Z,6.25
2023-05-14T10:06:01.453Z,7.38
2023-05-14T10:08:31.261Z,7.43
2023-05-14T10:11:05.056Z,6.43
2023-05-14T10:13:34.867Z,6.53
2023-05-14T10:16:25.066Z,8.88
2023-05-14T10:18:57.148Z,6.28
2023-05-14T10:21:24.539Z,7.45
2023-05-14T10:23:51.393Z,5.47
2023-05-14T10:26:18.216Z,7.75
2023-05-14T10:28:45.072Z,6.10
2023-05-14T10:31:12.015Z,5.80
2023-05-14T10:33:50.515Z,8.50
2023-05-14T10:36:20.809Z,6.70
2023-05-14T10:38:47.549Z,7.03
2023-05-14T10:41:16.623Z,6.63
2023-05-14T10:43:44.044Z,9.40
2023-05-14T10:46:11.841Z,7.45
2023-05-14T10:48:41.160Z,6.53
2023-05-14T10:51:11.915Z,6.82
2023-05-14T10:53:40.216Z,9.82
2023-05-14T10:56:08.623Z,6.35
2023-05-14T10:58:37.336Z,5.53
2023-05-14T11:01:06.168Z,5.78
2023-05-14T11:03:38.831Z,5.38
2023-05-14T11:08:32.171Z,6.30
2023-05-14T11:10:58.875Z,5.63
2023-05-14T11:13:26.690Z,5.65
2023-05-14T11:15:53.712Z,6.05
2023-05-14T11:18:30.733Z,5.03
2023-05-14T11:21:01.377Z,6.28
2023-05-14T11:23:28.918Z,5.60
2023-05-14T11:25:56.841Z,5.90
2023-05-14T11:28:24.350Z,5.68
2023-05-14T11:30:51.270Z,4.68
2023-05-14T11:33:18.772Z,4.85
2023-05-14T11:35:46.739Z,5.38
2023-05-14T11:38:17.528Z,7.63
2023-05-14T11:40:58.200Z,5.00
2023-05-14T11:43:26.272Z,5.65
2023-05-14T11:45:53.793Z,5.10
2023-05-14T11:48:21.877Z,5.35
2023-05-14T11:50:49.819Z,6.95
2023-05-14T11:53:29.992Z,5.90
2023-05-14T11:55:58.087Z,5.72
2023-05-14T11:58:25.088Z,6.00
2023-05-14T12:00:55.967Z,5.03
2023-05-14T12:03:26.764Z,4.10
2023-05-14T12:05:57.859Z,4.25
2023-05-14T12:08:29.402Z,5.28
2023-05-14T12:10:56.386Z,4.28
2023-05-14T12:13:26.753Z,4.10
2023-05-14T12:15:58.047Z,3.60
2023-05-14T12:18:25.867Z,3.80
2023-05-14T12:20:52.618Z,4.25
2023-05-14T12:23:30.237Z,3.35
2023-05-14T12:26:06.522Z,5.15
2023-05-14T12:28:35.312Z,3.00
2023-05-14T12:31:03.831Z,3.33
2023-05-14T12:33:30.536Z,3.40
2023-05-14T12:36:10.013Z,3.67
2023-05-14T12:38:41.351Z,4.95
2023-05-14T12:41:08.085Z,3.40
2023-05-14T12:43:34.778Z,3.63
2023-05-14T12:46:01.440Z,4.35
2023-05-14T12:48:28.125Z,3.42
2023-05-14T12:50:54.829Z,3.15
2023-05-14T12:53:21.570Z,3.42
2023-05-14T12:55:49.730Z,2.80
2023-05-14T12:58:16.637Z,3.25
2023-05-14T13:00:43.339Z,3.40
2023-05-14T13:03:10.145Z,3.10
2023-05-14T13:05:36.880Z,3.25
2023-05-14T13:08:04.119Z,3.65
2023-05-14T13:10:30.910Z,3.28
2023-05-14T13:12:58.285Z,3.53
2023-05-14T13:15:25.235Z,3.75
2023-05-14T13:17:52.188Z,3.45
2023-05-14T13:20:19.005Z,2.92
2023-05-14T13:22:45.786Z,4.47
2023-05-14T13:25:12.488Z,3.20
2023-05-14T13:27:39.183Z,3.78
2023-05-14T13:30:06.608Z,3.30
2023-05-14T13:32:33.536Z,2.47
2023-05-14T13:35:00.429Z,3.10
2023-05-14T13:37:27.122Z,3.03
2023-05-14T13:39:53.917Z,3.05
2023-05-14T13:42:20.566Z,3.95
2023-05-14T13:44:47.276Z,4.55
2023-05-14T13:47:13.977Z,3.30
2023-05-14T13:49:40.898Z,3.20
2023-05-14T13:52:07.725Z,3.90
2023-05-14T13:54:34.602Z,3.00
2023-05-14T13:57:01.360Z,3.88
2023-05-14T13:59:28.192Z,3.35
2023-05-14T14:01:56.827Z,4.03
2023-05-14T14:04:25.951Z,2.95
2023-05-14T14:06:52.706Z,3.22
2023-05-14T14:09:19.425Z,2.33
2023-05-14T14:11:46.132Z,2.75
2023-05-14T14:14:13.183Z,3.17
2023-05-14T14:16:39.968Z,2.22
2023-05-14T14:19:10.289Z,2.17
2023-05-14T14:21:39.849Z,3.30
2023-05-14T14:24:06.833Z,2.25
2023-05-14T14:26:33.867Z,2.30
2023-05-14T14:29:00.572Z,2.53
2023-05-14T14:31:27.579Z,1.90
2023-05-14T14:33:54.249Z,2.50
2023-05-14T14:36:21.122Z,3.08
2023-05-14T14:38:47.981Z,3.20
2023-05-14T14:41:14.709Z,3.92
2023-05-14T14:43:42.218Z,2.55
2023-05-14T14:46:09.887Z,3.00
2023-05-14T14:48:41.394Z,3.40
2023-05-14T14:51:09.018Z,2.70
2023-05-14T14:53:37.054Z,2.55
2023-05-14T14:56:04.357Z,2.40
2023-05-14T14:58:31.407Z,2.85
2023-05-14T15:00:58.856Z,2.40
2023-05-14T15:03:26.015Z,4.18
2023-05-14T15:05:53.818Z,3.35
2023-05-14T15:08:27.580Z,3.50
2023-05-14T15:10:57.679Z,2.80
2023-05-14T15:13:24.812Z,3.63
2023-05-14T15:15:52.593Z,2.70
2023-05-14T15:18:19.471Z,3.38
2023-05-14T15:20:46.367Z,2.67
2023-05-14T15:23:13.107Z,2.72
2023-05-14T15:25:39.789Z,3.10
2023-05-14T15:28:07.664Z,2.78
2023-05-14T15:30:34.567Z,3.30
2023-05-14T15:33:01.556Z,3.20
2023-05-14T15:35:28.264Z,3.30
2023-05-14T15:37:56.643Z,2.60
2023-05-14T15:40:23.763Z,2.67
2023-05-14T15:42:50.976Z,2.70
2023-05-14T15:45:17.743Z,3.22
2023-05-14T15:47:45.357Z,2.50
2023-05-14T15:50:15.245Z,3.10
2023-05-14T15:52:41.911Z,3.22
2023-05-14T15:55:09.100Z,3.25
2023-05-14T15:57:35.837Z,4.18
2023-05-14T16:00:10.166Z,3.40
2023-05-14T16:02:38.453Z,2.88
2023-05-14T16:05:06.347Z,2.47
2023-05-14T16:07:33.437Z,3.30
2023-05-14T16:10:00.293Z,2.72
2023-05-14T16:12:27.444Z,2.70
2023-05-14T16:14:54.122Z,2.85
2023-05-14T16:17:21.476Z,3.53
2023-05-14T16:19:48.466Z,2.35
2023-05-14T16:22:15.332Z,2.63
2023-05-14T16:24:42.028Z,2.78
2023-05-14T16:27:08.749Z,2.67
2023-05-14T16:29:35.631Z,2.80
2023-05-14T16:32:02.452Z,2.88
2023-05-14T16:34:29.373Z,3.20
2023-05-14T16:36:56.147Z,3.92
2023-05-14T16:39:22.816Z,2.45
2023-05-14T16:41:49.490Z,3.38
2023-05-14T16:44:16.522Z,2.58
2023-05-14T16:46:43.292Z,2.60
2023-05-14T16:49:09.934Z,2.20
2023-05-14T16:51:37.458Z,2.42
2023-05-14T16:54:04.217Z,2.47
2023-05-14T16:56:32.481Z,3.20
2023-05-14T16:58:59.193Z,4.55
2023-05-14T17:01:26.239Z,2.70
2023-05-14T17:03:52.900Z,3.03
2023-05-14T17:06:19.629Z,2.70
2023-05-14T17:08:46.310Z,2.75
2023-05-14T17:11:13.043Z,3.08
2023-05-14T17:13:39.749Z,2.47
2023-05-14T17:16:06.471Z,2.55
2023-05-14T17:18:33.328Z,2.38
2023-05-14T17:21:00.121Z,5.45
2023-05-14T17:23:26.812Z,2.45
2023-05-14T17:25:53.477Z,3.20
2023-05-14T17:28:20.173Z,7.30
2023-05-14T17:30:46.988Z,2.40
2023-05-14T17:33:13.720Z,2.35
2023-05-14T17:35:40.354Z,2.47
2023-05-14T17:38:07.097Z,3.15
2023-05-14T17:40:34.304Z,2.60
2023-05-14T17:43:01.770Z,3.88
2023-05-14T17:45:32.179Z,3.35
2023-05-14T17:48:06.550Z,3.33
2023-05-14T17:50:33.486Z,4.82
2023-05-14T17:53:00.298Z,3.45
2023-05-14T17:55:27.200Z,3.03
2023-05-14T17:57:53.963Z,2.88
2023-05-14T18:00:23.486Z,2.25
2023-05-14T18:02:50.481Z,2.67
2023-05-14T18:05:19.945Z,3.55
2023-05-14T18:07:47.344Z,3.38
2023-05-14T18:10:14.111Z,3.00
2023-05-14T18:12:40.819Z,2.70
2023-05-14T18:15:08.156Z,3.75
2023-05-14T18:17:34.816Z,2.53
2023-05-14T18:20:01.636Z,3.08
2023-05-14T18:22:28.297Z,4.57
2023-05-14T18:24:55.415Z,3.30
2023-05-14T18:27:22.157Z,5.22
2023-05-14T18:29:49.155Z,3.13
2023-05-14T18:32:15.905Z,3.22
2023-05-14T18:34:42.663Z,3.55
2023-05-14T18:37:09.716Z,2.97
2023-05-14T18:39:36.489Z,3.97
2023-05-14T18:42:03.323Z,5.38
2023-05-14T18:44:30.046Z,2.95
2023-05-14T18:46:56.808Z,3.15
2023-05-14T18:49:23.672Z,2.90
2023-05-14T18:51:50.463Z,5.18
2023-05-14T18:54:17.359Z,3.40
2023-05-14T18:56:46.814Z,3.38
2023-05-14T18:59:14.416Z,4.25
2023-05-14T19:01:41.213Z,4.32
2023-05-14T19:04:08.272Z,3.17
2023-05-14T19:06:35.317Z,3.40
2023-05-14T19:09:02.006Z,4.60
2023-05-14T19:11:28.785Z,3.78
2023-05-14T19:13:55.557Z,5.25
2023-05-14T19:16:22.488Z,4.05
2023-05-14T19:18:49.236Z,3.78
2023-05-14T19:21:16.109Z,4.15
2023-05-14T19:23:42.926Z,4.10
2023-05-14T19:26:09.631Z,4.20
2023-05-14T19:28:38.267Z,3.85
2023-05-14T19:31:05.648Z,4.55
2023-05-14T19:33:32.396Z,3.67
2023-05-14T19:35:59.141Z,4.13
2023-05-14T19:38:25.862Z,4.15
2023-05-14T19:40:56.867Z,5.32
2023-05-14T19:43:28.079Z,3.47
2023-05-14T19:45:54.819Z,4.82
2023-05-14T19:48:21.532Z,4.97
2023-05-14T19:50:48.297Z,4.72
2023-05-14T19:53:15.032Z,4.50
2023-05-14T19:55:41.884Z,6.60
2023-05-14T19:58:08.856Z,6.88
2023-05-14T20:00:37.121Z,6.68
2023-05-14T20:03:05.794Z,6.40
2023-05-14T20:05:34.418Z,5.53
2023-05-14T20:08:01.200Z,7.32
2023-05-14T20:10:41.575Z,6.20
2023-05-14T20:13:08.593Z,5.53
2023-05-14T20:15:46.688Z,5.85
2023-05-14T20:18:21.452Z,4.78
2023-05-14T20:20:49.264Z,4.82
2023-05-14T20:23:16.210Z,5.50
2023-05-14T20:25:43.192Z,5.60
2023-05-14T20:28:10.668Z,6.60
2023-05-14T20:30:37.788Z,5.75
2023-05-14T20:33:04.634Z,9.05
2023-05-14T20:35:31.663Z,8.57
2023-05-14T20:37:58.738Z,7.50
2023-05-14T20:40:25.840Z,6.35
2023-05-14T20:42:52.754Z,5.88
2023-05-14T20:45:19.770Z,6.18
2023-05-14T20:47:46.728Z,5.82
2023-05-14T20:50:13.879Z,6.68
2023-05-14T20:52:40.905Z,5.88
2023-05-14T20:55:08.027Z,6.90
2023-05-14T20:57:34.743Z,6.63
2023-05-14T21:00:02.516Z,7.07
2023-05-14T21:02:29.379Z,7.28
2023-05-14T21:04:56.349Z,7.38
2023-05-14T21:07:23.194Z,9.40
2023-05-14T21:09:52.562Z,7.63
2023-05-14T21:12:19.662Z,7.00
2023-05-14T21:14:46.582Z,6.25
2023-05-14T21:17:13.245Z,6.55
2023-05-14T21:19:39.982Z,7.70
2023-05-14T21:22:07.038Z,5.68
2023-05-14T21:24:33.727Z,8.77
2023-05-14T21:27:00.441Z,8.32
2023-05-14T21:29:27.129Z,7.95
2023-05-14T21:31:53.797Z,9.18
2023-05-14T21:34:20.584Z,7.05
2023-05-14T21:36:47.658Z,6.55
2023-05-14T21:39:14.313Z,6.03
2023-05-14T21:41:41.427Z,7.15
2023-05-14T21:44:08.117Z,6.45
2023-05-14T21:46:34.787Z,7.07
2023-05-14T21:49:01.537Z,6.88
2023-05-14T21:51:28.223Z,7.20
2023-05-14T21:53:54.954Z,8.20
2023-05-14T21:56:22.573Z,6.53
2023-05-14T21:58:49.266Z,7.30
2023-05-14T22:01:16.007Z,7.18
2023-05-14T22:03:42.765Z,8.05
2023-05-14T22:06:09.431Z,8.10
2023-05-14T22:08:36.121Z,5.82
2023-05-14T22:11:02.903Z,6.57
2023-05-14T22:13:29.658Z,8.43
2023-05-14T22:16:09.068Z,8.80
2023-05-14T22:18:38.888Z,7.18
2023-05-14T22:21:05.863Z,7.18
2023-05-14T22:23:32.538Z,8.25
2023-05-14T22:25:59.233Z,8.65
2023-05-14T22:28:25.929Z,7.10
2023-05-14T22:30:52.670Z,7.18
2023-05-14T22:33:19.484Z,6.88
2023-05-14T22:35:46.373Z,8.52
2023-05-14T22:38:14.069Z,7.32
2023-05-14T22:40:40.872Z,7.28
2023-05-14T22:43:07.570Z,9.20
2023-05-14T22:45:34.385Z,7.80
2023-05-14T22:48:01.169Z,6.97
2023-05-14T22:50:27.911Z,7.53
2023-05-14T22:52:54.562Z,8.85
2023-05-14T22:55:21.341Z,9.18
2023-05-14T22:57:48.131Z,6.60
2023-05-14T23:00:15.620Z,7.68
2023-05-14T23:02:42.409Z,7.47
2023-05-14T23:05:09.516Z,10.15
2023-05-14T23:07:36.310Z,7.20
2023-05-14T23:10:02.972Z,7.35
2023-05-14T23:12:29.671Z,8.10
2023-05-14T23:14:56.342Z,7.32
2023-05-14T23:17:23.026Z,8.45
2023-05-14T23:19:49.820Z,7.18
2023-05-14T23:22:16.547Z,9.35
2023-05-14T23:24:43.271Z,7.47
2023-05-14T23:27:11.225Z,7.78
2023-05-14T23:29:37.922Z,9.45
2023-05-14T23:32:04.937Z,9.88
2023-05-14T23:34:31.668Z,7.72
2023-05-14T23:36:58.318Z,7.35
2023-05-14T23:39:25.009Z,7.38
2023-05-14T23:41:52.265Z,9.43
2023-05-14T23:44:19.003Z,7.00
2023-05-14T23:46:45.758Z,8.10
2023-05-14T23:49:12.731Z,7.90
2023-05-14T23:51:39.468Z,6.93
2023-05-14T23:54:06.180Z,8.10
2023-05-14T23:56:33.707Z,7.20
2023-05-14T23:59:00.460Z,7.20
